sensor_id;sensor_type;location;lat;lon;timestamp;P1;durP1;ratioP1;P2;durP2;ratioP2
75700;SDS011;64321;48.796;44.740;2023-06-22T00:02:02;3.17;;;1.10;;
75700;SDS011;64321;48.796;44.740;2023-06-22T00:07:04;6.45;;;1.15;;
75700;SDS011;64321;48.796;44.740;2023-06-22T00:12:06;2.97;;;1.63;;
75700;SDS011;64321;48.796;44.740;2023-06-22T00:17:08;3.88;;;2.10;;
75700;SDS011;64321;48.796;44.740;2023-06-22T00:22:11;4.05;;;1.27;;
75700;SDS011;64321;48.796;44.740;2023-06-22T00:27:13;3.28;;;1.48;;
75700;SDS011;64321;48.796;44.740;2023-06-22T00:32:15;2.60;;;1.40;;
75700;SDS011;64321;48.796;44.740;2023-06-22T00:37:21;2.72;;;1.02;;
75700;SDS011;64321;48.796;44.740;2023-06-22T00:42:27;3.83;;;1.13;;
75700;SDS011;64321;48.796;44.740;2023-06-22T00:47:29;3.25;;;1.27;;
75700;SDS011;64321;48.796;44.740;2023-06-22T00:52:32;3.35;;;1.23;;
75700;SDS011;64321;48.796;44.740;2023-06-22T00:57:35;2.63;;;1.05;;
75700;SDS011;64321;48.796;44.740;2023-06-22T01:02:39;6.30;;;1.02;;
75700;SDS011;64321;48.796;44.740;2023-06-22T01:12:51;2.92;;;1.23;;
75700;SDS011;64321;48.796;44.740;2023-06-22T01:17:54;4.25;;;1.92;;
75700;SDS011;64321;48.796;44.740;2023-06-22T01:33:03;4.93;;;1.88;;
75700;SDS011;64321;48.796;44.740;2023-06-22T01:38:07;4.07;;;0.82;;
75700;SDS011;64321;48.796;44.740;2023-06-22T01:43:10;2.20;;;0.70;;
75700;SDS011;64321;48.796;44.740;2023-06-22T01:48:12;5.10;;;1.65;;
75700;SDS011;64321;48.796;44.740;2023-06-22T01:53:14;3.05;;;1.73;;
75700;SDS011;64321;48.796;44.740;2023-06-22T01:58:17;2.60;;;0.95;;
75700;SDS011;64321;48.796;44.740;2023-06-22T02:03:23;4.30;;;1.88;;
75700;SDS011;64321;48.796;44.740;2023-06-22T02:08:29;3.33;;;1.55;;
75700;SDS011;64321;48.796;44.740;2023-06-22T02:13:33;3.92;;;1.25;;
75700;SDS011;64321;48.796;44.740;2023-06-22T02:18:37;4.60;;;2.08;;
75700;SDS011;64321;48.796;44.740;2023-06-22T02:23:41;3.97;;;1.58;;
75700;SDS011;64321;48.796;44.740;2023-06-22T02:28:43;3.78;;;2.72;;
75700;SDS011;64321;48.796;44.740;2023-06-22T02:33:46;3.75;;;2.45;;
75700;SDS011;64321;48.796;44.740;2023-06-22T02:38:48;4.07;;;1.80;;
75700;SDS011;64321;48.796;44.740;2023-06-22T02:43:50;3.58;;;2.00;;
75700;SDS011;64321;48.796;44.740;2023-06-22T02:48:54;3.13;;;1.80;;
75700;SDS011;64321;48.796;44.740;2023-06-22T02:53:56;4.00;;;1.15;;
75700;SDS011;64321;48.796;44.740;2023-06-22T02:59:02;3.92;;;1.70;;
75700;SDS011;64321;48.796;44.740;2023-06-22T03:04:10;4.65;;;1.77;;
75700;SDS011;64321;48.796;44.740;2023-06-22T03:09:13;3.88;;;2.28;;
75700;SDS011;64321;48.796;44.740;2023-06-22T03:14:15;2.70;;;0.77;;
75700;SDS011;64321;48.796;44.740;2023-06-22T03:19:17;2.15;;;1.10;;
75700;SDS011;64321;48.796;44.740;2023-06-22T03:24:21;4.30;;;0.85;;
75700;SDS011;64321;48.796;44.740;2023-06-22T03:29:23;2.55;;;1.13;;
75700;SDS011;64321;48.796;44.740;2023-06-22T03:34:33;4.47;;;1.10;;
75700;SDS011;64321;48.796;44.740;2023-06-22T03:39:37;2.95;;;1.25;;
75700;SDS011;64321;48.796;44.740;2023-06-22T03:44:40;2.00;;;0.88;;
75700;SDS011;64321;48.796;44.740;2023-06-22T03:49:42;4.38;;;0.82;;
75700;SDS011;64321;48.796;44.740;2023-06-22T03:54:45;2.95;;;1.70;;
75700;SDS011;64321;48.796;44.740;2023-06-22T03:59:47;2.90;;;0.80;;
75700;SDS011;64321;48.796;44.740;2023-06-22T04:04:49;2.80;;;1.17;;
75700;SDS011;64321;48.796;44.740;2023-06-22T04:09:51;4.53;;;1.80;;
75700;SDS011;64321;48.796;44.740;2023-06-22T04:14:54;2.33;;;0.88;;
75700;SDS011;64321;48.796;44.740;2023-06-22T04:19:56;2.58;;;1.13;;
75700;SDS011;64321;48.796;44.740;2023-06-22T04:24:58;2.20;;;0.98;;
75700;SDS011;64321;48.796;44.740;2023-06-22T04:30:00;6.35;;;1.00;;
75700;SDS011;64321;48.796;44.740;2023-06-22T04:35:05;3.88;;;1.92;;
75700;SDS011;64321;48.796;44.740;2023-06-22T04:40:08;3.55;;;1.90;;
75700;SDS011;64321;48.796;44.740;2023-06-22T04:45:11;2.78;;;0.98;;
75700;SDS011;64321;48.796;44.740;2023-06-22T04:50:13;3.03;;;1.60;;
75700;SDS011;64321;48.796;44.740;2023-06-22T04:55:15;5.07;;;1.38;;
75700;SDS011;64321;48.796;44.740;2023-06-22T05:00:21;4.13;;;1.52;;
75700;SDS011;64321;48.796;44.740;2023-06-22T05:05:25;3.03;;;1.00;;
75700;SDS011;64321;48.796;44.740;2023-06-22T05:10:27;2.33;;;0.95;;
75700;SDS011;64321;48.796;44.740;2023-06-22T05:15:30;5.65;;;1.40;;
75700;SDS011;64321;48.796;44.740;2023-06-22T05:20:35;5.38;;;1.30;;
75700;SDS011;64321;48.796;44.740;2023-06-22T05:25:38;4.25;;;1.92;;
75700;SDS011;64321;48.796;44.740;2023-06-22T05:30:40;3.65;;;0.60;;
75700;SDS011;64321;48.796;44.740;2023-06-22T05:35:42;3.22;;;0.70;;
75700;SDS011;64321;48.796;44.740;2023-06-22T05:40:44;5.05;;;1.38;;
75700;SDS011;64321;48.796;44.740;2023-06-22T05:45:46;4.00;;;1.73;;
75700;SDS011;64321;48.796;44.740;2023-06-22T05:50:49;2.42;;;1.60;;
75700;SDS011;64321;48.796;44.740;2023-06-22T05:55:51;2.97;;;1.60;;
75700;SDS011;64321;48.796;44.740;2023-06-22T06:00:53;2.08;;;0.80;;
75700;SDS011;64321;48.796;44.740;2023-06-22T06:05:56;2.60;;;0.73;;
75700;SDS011;64321;48.796;44.740;2023-06-22T06:10:58;3.58;;;1.77;;
75700;SDS011;64321;48.796;44.740;2023-06-22T06:16:00;2.65;;;1.55;;
75700;SDS011;64321;48.796;44.740;2023-06-22T06:21:03;1.50;;;0.85;;
75700;SDS011;64321;48.796;44.740;2023-06-22T06:26:05;1.85;;;0.50;;
75700;SDS011;64321;48.796;44.740;2023-06-22T06:31:09;1.55;;;0.50;;
75700;SDS011;64321;48.796;44.740;2023-06-22T06:36:11;4.93;;;0.75;;
75700;SDS011;64321;48.796;44.740;2023-06-22T06:41:14;2.28;;;0.90;;
75700;SDS011;64321;48.796;44.740;2023-06-22T06:46:17;2.92;;;0.60;;
75700;SDS011;64321;48.796;44.740;2023-06-22T06:51:21;2.05;;;0.80;;
75700;SDS011;64321;48.796;44.740;2023-06-22T06:56:23;4.35;;;1.40;;
75700;SDS011;64321;48.796;44.740;2023-06-22T07:01:25;1.77;;;0.80;;
75700;SDS011;64321;48.796;44.740;2023-06-22T07:06:27;2.50;;;1.02;;
75700;SDS011;64321;48.796;44.740;2023-06-22T07:16:37;1.95;;;0.85;;
75700;SDS011;64321;48.796;44.740;2023-06-22T07:21:39;2.13;;;1.15;;
75700;SDS011;64321;48.796;44.740;2023-06-22T07:26:41;2.40;;;0.90;;
75700;SDS011;64321;48.796;44.740;2023-06-22T07:31:49;2.55;;;1.05;;
75700;SDS011;64321;48.796;44.740;2023-06-22T07:36:53;4.22;;;1.33;;
75700;SDS011;64321;48.796;44.740;2023-06-22T07:41:55;3.75;;;2.13;;
75700;SDS011;64321;48.796;44.740;2023-06-22T07:46:57;3.40;;;1.38;;
75700;SDS011;64321;48.796;44.740;2023-06-22T07:52:00;2.63;;;1.00;;
75700;SDS011;64321;48.796;44.740;2023-06-22T07:57:05;4.20;;;1.15;;
75700;SDS011;64321;48.796;44.740;2023-06-22T08:02:07;2.70;;;1.17;;
75700;SDS011;64321;48.796;44.740;2023-06-22T08:07:11;3.17;;;1.20;;
75700;SDS011;64321;48.796;44.740;2023-06-22T08:12:13;2.65;;;1.08;;
75700;SDS011;64321;48.796;44.740;2023-06-22T08:17:16;3.00;;;1.42;;
75700;SDS011;64321;48.796;44.740;2023-06-22T08:22:21;3.30;;;0.82;;
75700;SDS011;64321;48.796;44.740;2023-06-22T08:27:23;2.42;;;1.15;;
75700;SDS011;64321;48.796;44.740;2023-06-22T08:32:26;2.33;;;0.82;;
75700;SDS011;64321;48.796;44.740;2023-06-22T08:37:29;3.50;;;2.00;;
75700;SDS011;64321;48.796;44.740;2023-06-22T08:42:39;5.63;;;3.15;;
75700;SDS011;64321;48.796;44.740;2023-06-22T08:47:42;3.25;;;1.42;;
75700;SDS011;64321;48.796;44.740;2023-06-22T08:52:44;5.93;;;0.95;;
75700;SDS011;64321;48.796;44.740;2023-06-22T08:57:47;2.03;;;0.68;;
75700;SDS011;64321;48.796;44.740;2023-06-22T09:02:49;1.77;;;0.75;;
75700;SDS011;64321;48.796;44.740;2023-06-22T09:07:52;2.47;;;1.33;;
75700;SDS011;64321;48.796;44.740;2023-06-22T09:12:56;2.70;;;1.60;;
75700;SDS011;64321;48.796;44.740;2023-06-22T09:17:59;3.53;;;1.92;;
75700;SDS011;64321;48.796;44.740;2023-06-22T09:23:01;2.60;;;0.95;;
75700;SDS011;64321;48.796;44.740;2023-06-22T09:28:03;1.63;;;0.93;;
75700;SDS011;64321;48.796;44.740;2023-06-22T09:33:05;2.55;;;1.63;;
75700;SDS011;64321;48.796;44.740;2023-06-22T09:38:08;2.85;;;0.98;;
75700;SDS011;64321;48.796;44.740;2023-06-22T09:43:10;3.45;;;1.67;;
75700;SDS011;64321;48.796;44.740;2023-06-22T09:48:13;3.40;;;0.73;;
75700;SDS011;64321;48.796;44.740;2023-06-22T09:53:15;2.53;;;0.82;;
75700;SDS011;64321;48.796;44.740;2023-06-22T09:58:18;2.17;;;1.70;;
75700;SDS011;64321;48.796;44.740;2023-06-22T10:03:20;2.83;;;1.08;;
75700;SDS011;64321;48.796;44.740;2023-06-22T10:08:23;2.65;;;1.60;;
75700;SDS011;64321;48.796;44.740;2023-06-22T10:13:25;2.00;;;0.73;;
75700;SDS011;64321;48.796;44.740;2023-06-22T10:18:27;2.25;;;1.70;;
75700;SDS011;64321;48.796;44.740;2023-06-22T10:23:29;3.28;;;1.50;;
75700;SDS011;64321;48.796;44.740;2023-06-22T10:28:32;2.05;;;0.85;;
75700;SDS011;64321;48.796;44.740;2023-06-22T10:33:34;4.57;;;2.05;;
75700;SDS011;64321;48.796;44.740;2023-06-22T10:38:36;3.03;;;2.15;;
75700;SDS011;64321;48.796;44.740;2023-06-22T10:43:39;2.55;;;1.05;;
75700;SDS011;64321;48.796;44.740;2023-06-22T10:48:41;4.07;;;1.38;;
75700;SDS011;64321;48.796;44.740;2023-06-22T10:53:43;6.50;;;1.90;;
75700;SDS011;64321;48.796;44.740;2023-06-22T10:58:45;1.65;;;0.85;;
75700;SDS011;64321;48.796;44.740;2023-06-22T11:03:48;3.67;;;1.63;;
75700;SDS011;64321;48.796;44.740;2023-06-22T11:08:50;2.10;;;1.20;;
75700;SDS011;64321;48.796;44.740;2023-06-22T11:14:05;4.28;;;1.20;;
75700;SDS011;64321;48.796;44.740;2023-06-22T11:19:07;2.20;;;1.15;;
75700;SDS011;64321;48.796;44.740;2023-06-22T11:24:10;2.05;;;1.02;;
75700;SDS011;64321;48.796;44.740;2023-06-22T11:29:12;3.22;;;1.67;;
75700;SDS011;64321;48.796;44.740;2023-06-22T11:34:28;2.53;;;1.13;;
75700;SDS011;64321;48.796;44.740;2023-06-22T11:39:30;3.13;;;1.10;;
75700;SDS011;64321;48.796;44.740;2023-06-22T11:44:43;2.08;;;1.00;;
75700;SDS011;64321;48.796;44.740;2023-06-22T11:49:46;2.20;;;1.25;;
75700;SDS011;64321;48.796;44.740;2023-06-22T11:54:48;4.82;;;1.02;;
75700;SDS011;64321;48.796;44.740;2023-06-22T11:59:51;3.45;;;1.90;;
75700;SDS011;64321;48.796;44.740;2023-06-22T12:04:53;4.05;;;2.42;;
75700;SDS011;64321;48.796;44.740;2023-06-22T12:09:58;3.05;;;1.38;;
75700;SDS011;64321;48.796;44.740;2023-06-22T12:15:00;3.30;;;1.33;;
75700;SDS011;64321;48.796;44.740;2023-06-22T12:20:06;2.90;;;1.27;;
75700;SDS011;64321;48.796;44.740;2023-06-22T12:25:09;4.05;;;1.40;;
75700;SDS011;64321;48.796;44.740;2023-06-22T12:30:11;3.47;;;1.05;;
75700;SDS011;64321;48.796;44.740;2023-06-22T12:35:14;3.10;;;1.33;;
75700;SDS011;64321;48.796;44.740;2023-06-22T12:40:16;3.72;;;1.95;;
75700;SDS011;64321;48.796;44.740;2023-06-22T12:45:18;3.55;;;1.08;;
75700;SDS011;64321;48.796;44.740;2023-06-22T12:50:23;3.63;;;1.05;;
75700;SDS011;64321;48.796;44.740;2023-06-22T12:55:25;6.15;;;2.00;;
75700;SDS011;64321;48.796;44.740;2023-06-22T13:00:27;4.50;;;1.83;;
75700;SDS011;64321;48.796;44.740;2023-06-22T13:05:30;1.67;;;0.77;;
75700;SDS011;64321;48.796;44.740;2023-06-22T13:10:32;2.30;;;1.45;;
75700;SDS011;64321;48.796;44.740;2023-06-22T13:15:34;3.55;;;1.45;;
75700;SDS011;64321;48.796;44.740;2023-06-22T13:20:37;2.20;;;1.08;;
75700;SDS011;64321;48.796;44.740;2023-06-22T13:25:39;2.85;;;1.50;;
75700;SDS011;64321;48.796;44.740;2023-06-22T13:30:41;1.83;;;0.85;;
75700;SDS011;64321;48.796;44.740;2023-06-22T13:35:44;2.63;;;1.63;;
75700;SDS011;64321;48.796;44.740;2023-06-22T13:40:46;2.55;;;1.48;;
75700;SDS011;64321;48.796;44.740;2023-06-22T13:45:49;3.15;;;1.05;;
75700;SDS011;64321;48.796;44.740;2023-06-22T13:50:52;5.20;;;1.25;;
75700;SDS011;64321;48.796;44.740;2023-06-22T13:55:54;2.70;;;1.02;;
75700;SDS011;64321;48.796;44.740;2023-06-22T14:00:56;2.90;;;1.33;;
75700;SDS011;64321;48.796;44.740;2023-06-22T14:05:58;2.85;;;1.15;;
75700;SDS011;64321;48.796;44.740;2023-06-22T14:11:00;2.33;;;1.50;;
75700;SDS011;64321;48.796;44.740;2023-06-22T14:16:03;2.80;;;1.10;;
75700;SDS011;64321;48.796;44.740;2023-06-22T14:21:07;4.45;;;1.52;;
75700;SDS011;64321;48.796;44.740;2023-06-22T14:26:09;3.58;;;0.93;;
75700;SDS011;64321;48.796;44.740;2023-06-22T14:31:11;3.75;;;1.13;;
75700;SDS011;64321;48.796;44.740;2023-06-22T14:36:14;3.78;;;1.40;;
75700;SDS011;64321;48.796;44.740;2023-06-22T14:41:16;3.25;;;1.90;;
75700;SDS011;64321;48.796;44.740;2023-06-22T14:46:19;3.90;;;1.60;;
75700;SDS011;64321;48.796;44.740;2023-06-22T14:51:22;4.75;;;2.85;;
75700;SDS011;64321;48.796;44.740;2023-06-22T14:56:24;6.88;;;1.60;;
75700;SDS011;64321;48.796;44.740;2023-06-22T15:01:26;4.28;;;1.70;;
75700;SDS011;64321;48.796;44.740;2023-06-22T15:06:29;4.07;;;2.30;;
75700;SDS011;64321;48.796;44.740;2023-06-22T15:11:31;5.07;;;1.88;;
75700;SDS011;64321;48.796;44.740;2023-06-22T15:16:35;3.88;;;1.27;;
75700;SDS011;64321;48.796;44.740;2023-06-22T15:21:37;3.42;;;1.00;;
75700;SDS011;64321;48.796;44.740;2023-06-22T15:26:40;2.17;;;1.13;;
75700;SDS011;64321;48.796;44.740;2023-06-22T15:31:42;4.93;;;2.00;;
75700;SDS011;64321;48.796;44.740;2023-06-22T15:36:44;3.70;;;0.93;;
75700;SDS011;64321;48.796;44.740;2023-06-22T15:41:46;6.47;;;1.90;;
75700;SDS011;64321;48.796;44.740;2023-06-22T15:46:49;3.90;;;1.75;;
75700;SDS011;64321;48.796;44.740;2023-06-22T15:51:51;4.57;;;2.05;;
75700;SDS011;64321;48.796;44.740;2023-06-22T15:56:53;4.38;;;1.25;;
75700;SDS011;64321;48.796;44.740;2023-06-22T16:01:55;4.28;;;2.22;;
75700;SDS011;64321;48.796;44.740;2023-06-22T16:06:58;5.30;;;2.78;;
75700;SDS011;64321;48.796;44.740;2023-06-22T16:12:00;8.80;;;2.40;;
75700;SDS011;64321;48.796;44.740;2023-06-22T16:17:03;3.85;;;1.42;;
75700;SDS011;64321;48.796;44.740;2023-06-22T16:22:05;3.72;;;2.10;;
75700;SDS011;64321;48.796;44.740;2023-06-22T16:27:08;4.53;;;2.20;;
75700;SDS011;64321;48.796;44.740;2023-06-22T16:32:10;4.28;;;1.20;;
75700;SDS011;64321;48.796;44.740;2023-06-22T16:37:12;5.20;;;1.55;;
75700;SDS011;64321;48.796;44.740;2023-06-22T16:42:15;7.90;;;1.02;;
75700;SDS011;64321;48.796;44.740;2023-06-22T16:47:18;6.15;;;2.30;;
75700;SDS011;64321;48.796;44.740;2023-06-22T16:52:21;6.20;;;1.73;;
75700;SDS011;64321;48.796;44.740;2023-06-22T16:57:23;7.72;;;2.05;;
75700;SDS011;64321;48.796;44.740;2023-06-22T17:02:26;7.35;;;1.48;;
75700;SDS011;64321;48.796;44.740;2023-06-22T17:07:28;3.83;;;1.92;;
75700;SDS011;64321;48.796;44.740;2023-06-22T17:12:32;5.85;;;1.90;;
75700;SDS011;64321;48.796;44.740;2023-06-22T17:17:36;6.45;;;1.83;;
75700;SDS011;64321;48.796;44.740;2023-06-22T17:22:38;7.18;;;2.50;;
75700;SDS011;64321;48.796;44.740;2023-06-22T17:27:41;6.50;;;2.50;;
75700;SDS011;64321;48.796;44.740;2023-06-22T17:32:46;4.88;;;2.58;;
75700;SDS011;64321;48.796;44.740;2023-06-22T17:37:53;7.90;;;3.08;;
75700;SDS011;64321;48.796;44.740;2023-06-22T17:43:02;7.25;;;2.05;;
75700;SDS011;64321;48.796;44.740;2023-06-22T17:48:05;8.68;;;4.05;;
75700;SDS011;64321;48.796;44.740;2023-06-22T17:53:10;15.15;;;4.05;;
75700;SDS011;64321;48.796;44.740;2023-06-22T17:58:13;17.77;;;6.00;;
75700;SDS011;64321;48.796;44.740;2023-06-22T18:03:17;18.33;;;7.30;;
75700;SDS011;64321;48.796;44.740;2023-06-22T18:08:25;15.93;;;7.07;;
75700;SDS011;64321;48.796;44.740;2023-06-22T18:13:28;14.82;;;7.40;;
75700;SDS011;64321;48.796;44.740;2023-06-22T18:18:30;15.40;;;7.43;;
75700;SDS011;64321;48.796;44.740;2023-06-22T18:23:33;18.80;;;7.25;;
75700;SDS011;64321;48.796;44.740;2023-06-22T18:28:38;16.65;;;6.93;;
75700;SDS011;64321;48.796;44.740;2023-06-22T18:33:40;15.25;;;8.15;;
75700;SDS011;64321;48.796;44.740;2023-06-22T18:38:43;16.48;;;7.68;;
75700;SDS011;64321;48.796;44.740;2023-06-22T18:43:53;16.25;;;7.05;;
75700;SDS011;64321;48.796;44.740;2023-06-22T18:49:08;17.25;;;6.80;;
75700;SDS011;64321;48.796;44.740;2023-06-22T18:54:16;16.70;;;6.70;;
75700;SDS011;64321;48.796;44.740;2023-06-22T19:04:41;11.90;;;5.40;;
75700;SDS011;64321;48.796;44.740;2023-06-22T19:09:47;13.20;;;5.38;;
75700;SDS011;64321;48.796;44.740;2023-06-22T19:15:09;13.82;;;5.53;;
75700;SDS011;64321;48.796;44.740;2023-06-22T19:20:18;12.68;;;6.28;;
75700;SDS011;64321;48.796;44.740;2023-06-22T19:25:30;18.20;;;6.63;;
75700;SDS011;64321;48.796;44.740;2023-06-22T19:30:35;17.10;;;8.07;;
75700;SDS011;64321;48.796;44.740;2023-06-22T19:35:38;12.75;;;6.32;;
75700;SDS011;64321;48.796;44.740;2023-06-22T19:40:40;18.73;;;8.00;;
75700;SDS011;64321;48.796;44.740;2023-06-22T19:45:43;16.98;;;6.88;;
75700;SDS011;64321;48.796;44.740;2023-06-22T19:50:46;20.73;;;8.05;;
75700;SDS011;64321;48.796;44.740;2023-06-22T19:55:49;19.25;;;7.75;;
75700;SDS011;64321;48.796;44.740;2023-06-22T20:00:55;18.17;;;9.48;;
75700;SDS011;64321;48.796;44.740;2023-06-22T20:11:10;17.58;;;8.23;;
75700;SDS011;64321;48.796;44.740;2023-06-22T20:16:13;19.48;;;7.30;;
75700;SDS011;64321;48.796;44.740;2023-06-22T20:21:15;19.35;;;9.15;;
75700;SDS011;64321;48.796;44.740;2023-06-22T20:26:18;22.85;;;9.77;;
75700;SDS011;64321;48.796;44.740;2023-06-22T20:31:20;19.75;;;8.65;;
75700;SDS011;64321;48.796;44.740;2023-06-22T20:36:25;23.02;;;9.63;;
75700;SDS011;64321;48.796;44.740;2023-06-22T20:41:27;25.02;;;9.70;;
75700;SDS011;64321;48.796;44.740;2023-06-22T20:46:31;27.38;;;10.93;;
75700;SDS011;64321;48.796;44.740;2023-06-22T20:51:33;23.33;;;10.50;;
75700;SDS011;64321;48.796;44.740;2023-06-22T20:56:35;28.55;;;13.93;;
75700;SDS011;64321;48.796;44.740;2023-06-22T21:01:38;24.42;;;11.80;;
75700;SDS011;64321;48.796;44.740;2023-06-22T21:06:40;21.48;;;11.60;;
75700;SDS011;64321;48.796;44.740;2023-06-22T21:11:42;22.38;;;11.65;;
75700;SDS011;64321;48.796;44.740;2023-06-22T21:16:44;26.80;;;10.73;;
75700;SDS011;64321;48.796;44.740;2023-06-22T21:21:47;20.88;;;9.77;;
75700;SDS011;64321;48.796;44.740;2023-06-22T21:26:49;27.65;;;12.57;;
75700;SDS011;64321;48.796;44.740;2023-06-22T21:31:51;26.65;;;9.60;;
75700;SDS011;64321;48.796;44.740;2023-06-22T21:36:54;35.25;;;9.02;;
75700;SDS011;64321;48.796;44.740;2023-06-22T21:41:56;24.40;;;9.60;;
75700;SDS011;64321;48.796;44.740;2023-06-22T21:46:58;30.70;;;10.02;;
75700;SDS011;64321;48.796;44.740;2023-06-22T21:52:01;24.42;;;8.43;;
75700;SDS011;64321;48.796;44.740;2023-06-22T21:57:03;25.67;;;7.35;;
75700;SDS011;64321;48.796;44.740;2023-06-22T22:02:05;13.35;;;6.80;;
75700;SDS011;64321;48.796;44.740;2023-06-22T22:07:07;11.75;;;6.38;;
75700;SDS011;64321;48.796;44.740;2023-06-22T22:12:11;11.20;;;4.97;;
75700;SDS011;64321;48.796;44.740;2023-06-22T22:17:14;15.80;;;5.93;;
75700;SDS011;64321;48.796;44.740;2023-06-22T22:22:16;16.85;;;5.38;;
75700;SDS011;64321;48.796;44.740;2023-06-22T22:27:18;16.40;;;5.22;;
75700;SDS011;64321;48.796;44.740;2023-06-22T22:32:20;15.68;;;5.55;;
75700;SDS011;64321;48.796;44.740;2023-06-22T22:37:23;15.02;;;5.68;;
75700;SDS011;64321;48.796;44.740;2023-06-22T22:42:25;11.15;;;4.57;;
75700;SDS011;64321;48.796;44.740;2023-06-22T22:47:27;16.00;;;5.50;;
75700;SDS011;64321;48.796;44.740;2023-06-22T22:52:30;13.73;;;4.97;;
75700;SDS011;64321;48.796;44.740;2023-06-22T22:57:32;15.18;;;6.43;;
75700;SDS011;64321;48.796;44.740;2023-06-22T23:02:35;15.60;;;6.25;;
75700;SDS011;64321;48.796;44.740;2023-06-22T23:07:38;22.92;;;7.18;;
75700;SDS011;64321;48.796;44.740;2023-06-22T23:12:41;12.40;;;4.93;;
75700;SDS011;64321;48.796;44.740;2023-06-22T23:17:46;18.10;;;6.32;;
75700;SDS011;64321;48.796;44.740;2023-06-22T23:22:54;14.98;;;5.03;;
75700;SDS011;64321;48.796;44.740;2023-06-22T23:28:00;10.63;;;5.22;;
75700;SDS011;64321;48.796;44.740;2023-06-22T23:33:02;17.63;;;5.25;;
75700;SDS011;64321;48.796;44.740;2023-06-22T23:38:04;12.70;;;6.28;;
75700;SDS011;64321;48.796;44.740;2023-06-22T23:43:07;19.45;;;6.18;;
75700;SDS011;64321;48.796;44.740;2023-06-22T23:48:10;14.32;;;5.05;;
75700;SDS011;64321;48.796;44.740;2023-06-22T23:53:13;15.07;;;5.13;;
75700;SDS011;64321;48.796;44.740;2023-06-22T23:58:15;14.27;;;5.63;;
